createdAt,value
2019-05-16T00:04:34.547Z,98236.77
2019-05-16T00:07:05.168Z,98227.15
2019-05-16T00:09:35.123Z,98221.28
2019-05-16T00:12:05.303Z,98217.70
2019-05-16T00:14:35.393Z,98219.92
2019-05-16T00:17:05.413Z,98220.39
2019-05-16T00:31:03.933Z,98204.60
2019-05-16T00:33:34.046Z,98202.69
2019-05-16T00:36:06.033Z,98199.14
2019-05-16T00:38:37.844Z,98197.64
2019-05-16T00:41:08.470Z,98195.17
2019-05-16T00:43:38.501Z,98193.72
2019-05-16T00:46:08.497Z,98195.48
2019-05-16T00:48:38.378Z,98184.11
2019-05-16T00:51:08.674Z,98182.06
2019-05-16T00:53:38.566Z,98184.61
2019-05-16T00:56:08.911Z,98176.19
2019-05-16T02:26:49.295Z,98136.27
2019-05-16T02:29:20.537Z,98133.84
2019-05-16T02:56:31.783Z,98122.30
2019-05-16T03:06:21.355Z,98110.48
2019-05-16T03:08:52.407Z,98104.81
2019-05-16T03:11:22.705Z,98098.17
2019-05-16T03:15:05.608Z,98103.25
2019-05-16T03:17:36.476Z,98098.08
2019-05-16T03:20:10.526Z,98093.27
2019-05-16T03:29:13.739Z,98086.58
2019-05-16T03:39:02.933Z,98070.02
2019-05-16T03:41:32.890Z,98067.84
2019-05-16T03:44:02.769Z,98068.61
2019-05-16T03:46:34.382Z,98063.47
2019-05-16T03:49:04.393Z,98067.55
2019-05-16T03:51:34.353Z,98065.61
2019-05-16T03:54:04.454Z,98067.79
2019-05-16T03:56:34.408Z,98071.58
2019-05-16T03:59:04.309Z,98074.86
2019-05-16T04:01:34.301Z,98076.17
2019-05-16T04:04:04.768Z,98069.81
2019-05-16T04:06:34.888Z,98066.03
2019-05-16T04:20:15.108Z,98057.84
2019-05-16T04:22:45.005Z,98052.98
2019-05-16T04:32:01.152Z,98060.64
2019-05-16T05:20:15.457Z,98055.34
2019-05-16T05:22:45.372Z,98051.06
2019-05-16T05:25:15.485Z,98051.63
2019-05-16T05:27:45.439Z,98051.11
2019-05-16T05:30:15.908Z,98044.39
2019-05-16T05:32:45.914Z,98050.76
2019-05-16T05:39:11.126Z,98048.08
2019-05-16T05:41:32.737Z,98043.86
2019-05-16T05:50:24.723Z,98045.03
2019-05-16T05:52:54.715Z,98047.42
2019-05-16T05:55:24.718Z,98043.71
2019-05-16T05:57:54.844Z,98049.38
2019-05-16T06:00:25.121Z,98042.75
2019-05-16T06:06:46.244Z,98037.98
2019-05-16T06:09:26.167Z,98033.28
2019-05-16T06:11:50.055Z,98035.00
2019-05-16T06:14:21.239Z,98041.01
2019-05-16T06:16:51.580Z,98033.13
2019-05-16T06:19:21.733Z,98035.98
2019-05-16T06:21:51.635Z,98031.30
2019-05-16T06:24:21.783Z,98035.66
2019-05-16T06:26:51.843Z,98031.95
2019-05-16T06:29:21.787Z,98035.30
2019-05-16T06:31:51.834Z,98026.91
2019-05-16T06:34:21.789Z,98027.91
2019-05-16T06:36:51.818Z,98028.91
2019-05-16T06:39:22.060Z,98020.13
2019-05-16T06:41:52.111Z,98017.70
2019-05-16T06:48:13.487Z,98019.65
2019-05-16T06:57:57.426Z,98015.44
2019-05-16T07:30:33.786Z,98006.30
2019-05-16T07:40:26.763Z,97989.20
2019-05-16T07:52:14.802Z,97988.44
2019-05-16T07:54:44.725Z,97992.03
2019-05-16T07:57:19.611Z,97985.87
2019-05-16T08:03:37.283Z,97985.32
2019-05-16T08:13:27.098Z,97981.42
2019-05-16T10:13:51.503Z,97855.16
2019-05-16T10:16:21.817Z,97850.33
2019-05-16T10:22:42.357Z,97842.39
2019-05-16T10:25:19.072Z,97840.83
2019-05-16T10:27:47.525Z,97847.91
2019-05-16T10:30:18.614Z,97841.08
2019-05-16T10:32:48.771Z,97835.41
2019-05-16T10:39:07.528Z,97832.73
2019-05-16T11:01:37.010Z,97800.89
2019-05-16T11:11:27.403Z,97796.09
2019-05-16T11:13:57.567Z,97790.83
2019-05-16T11:16:27.749Z,97790.85
2019-05-16T11:19:13.787Z,97787.16
2019-05-16T11:25:24.788Z,97788.02
2019-05-16T11:34:47.938Z,97786.78
2019-05-16T11:37:18.033Z,97788.98
2019-05-16T11:46:31.159Z,97779.45
2019-05-16T11:49:01.088Z,97778.48
2019-05-16T11:51:31.148Z,97770.11
2019-05-16T11:54:01.102Z,97771.45
2019-05-16T12:00:18.782Z,97766.80
2019-05-16T12:02:48.745Z,97756.91
2019-05-16T12:05:18.836Z,97760.45
2019-05-16T12:07:48.994Z,97757.52
2019-05-16T12:10:19.469Z,97759.14
2019-05-16T12:12:49.432Z,97756.75
2019-05-16T12:15:20.284Z,97751.73
2019-05-16T12:18:00.747Z,97749.45
2019-05-16T12:20:21.975Z,97750.83
2019-05-16T12:22:51.857Z,97744.15
2019-05-16T12:25:21.802Z,97741.16
2019-05-16T12:27:51.713Z,97743.30
2019-05-16T12:30:21.940Z,97740.11
2019-05-16T12:32:51.909Z,97736.83
2019-05-16T12:35:21.924Z,97733.67
2019-05-16T12:37:52.101Z,97738.36
2019-05-16T12:40:23.153Z,97740.34
2019-05-16T12:42:54.459Z,97734.61
2019-05-16T12:45:27.546Z,97736.39
2019-05-16T12:47:57.408Z,97729.11
2019-05-16T12:50:28.929Z,97728.83
2019-05-16T12:52:58.950Z,97723.42
2019-05-16T12:55:29.578Z,97716.92
2019-05-16T12:58:12.764Z,97707.97
2019-05-16T13:00:31.198Z,97707.12
2019-05-16T13:06:47.074Z,97703.27
2019-05-16T13:16:37.565Z,97705.63
2019-05-16T13:34:03.427Z,97674.03
2019-05-16T13:36:33.355Z,97672.84
2019-05-16T13:39:07.827Z,97669.19
2019-05-16T13:45:17.828Z,97665.74
2019-05-16T13:47:48.957Z,97658.66
2019-05-16T13:56:41.891Z,97647.47
2019-05-16T13:59:11.779Z,97645.08
2019-05-16T14:16:01.137Z,97619.67
2019-05-16T14:18:31.030Z,97611.91
2019-05-16T14:21:00.988Z,97611.26
2019-05-16T14:23:30.954Z,97612.58
2019-05-16T14:26:00.911Z,97610.13
2019-05-16T14:28:30.804Z,97607.09
2019-05-16T14:31:00.778Z,97611.55
2019-05-16T14:33:31.499Z,97605.09
2019-05-16T14:36:01.996Z,97605.69
2019-05-16T14:38:32.041Z,97603.73
2019-05-16T14:41:02.633Z,97606.81
2019-05-16T14:43:32.661Z,97605.25
2019-05-16T14:46:02.576Z,97602.38
2019-05-16T14:48:32.565Z,97603.07
2019-05-16T14:51:02.699Z,97599.38
2019-05-16T14:53:32.771Z,97598.20
2019-05-16T14:56:02.667Z,97601.93
2019-05-16T14:58:32.734Z,97599.66
2019-05-16T15:01:02.709Z,97594.58
2019-05-16T15:03:32.677Z,97593.96
2019-05-16T15:06:02.865Z,97590.28
2019-05-16T15:08:32.750Z,97590.22
2019-05-16T15:11:02.729Z,97585.77
2019-05-16T15:13:32.768Z,97587.35
2019-05-16T15:16:02.712Z,97588.62
2019-05-16T15:18:32.602Z,97582.81
2019-05-16T15:21:02.890Z,97584.81
2019-05-16T15:23:32.788Z,97582.63
2019-05-16T15:29:53.387Z,97580.73
2019-05-16T15:49:30.769Z,97567.45
2019-05-16T15:52:00.842Z,97561.97
2019-05-16T15:54:32.297Z,97559.47
2019-05-16T15:57:02.442Z,97563.02
2019-05-16T16:03:37.947Z,97554.89
2019-05-16T16:06:06.947Z,97549.67
2019-05-16T16:08:37.609Z,97546.22
2019-05-16T16:24:35.977Z,97529.95
2019-05-16T16:27:07.325Z,97537.73
2019-05-16T16:29:37.503Z,97534.11
2019-05-16T16:32:07.527Z,97530.25
2019-05-16T16:34:37.490Z,97529.64
2019-05-16T16:37:07.800Z,97529.77
2019-05-16T16:39:37.986Z,97528.36
2019-05-16T16:42:08.142Z,97526.84
2019-05-16T16:44:38.117Z,97533.01
2019-05-16T16:47:08.993Z,97532.30
2019-05-16T16:49:40.282Z,97536.09
2019-05-16T16:52:10.646Z,97531.11
2019-05-16T16:54:41.006Z,97536.70
2019-05-16T16:57:10.958Z,97529.61
2019-05-16T16:59:40.938Z,97525.06
2019-05-16T17:02:10.864Z,97528.58
2019-05-16T17:04:40.778Z,97530.67
2019-05-16T17:07:11.832Z,97530.09
2019-05-16T17:21:03.123Z,97521.59
2019-05-16T17:23:33.129Z,97525.80
2019-05-16T17:26:03.040Z,97524.39
2019-05-16T17:32:27.262Z,97526.94
2019-05-16T17:34:56.607Z,97520.77
2019-05-16T17:37:26.832Z,97520.77
2019-05-16T17:39:57.071Z,97520.41
2019-05-16T17:42:27.630Z,97521.27
2019-05-16T17:44:57.524Z,97518.92
2019-05-16T17:51:18.332Z,97517.33
2019-05-16T17:53:48.329Z,97516.88
2019-05-16T17:56:18.215Z,97515.09
2019-05-16T17:58:48.475Z,97515.92
2019-05-16T18:01:18.515Z,97516.80
2019-05-16T18:03:48.533Z,97520.86
2019-05-16T18:06:18.457Z,97524.45
2019-05-16T18:08:48.659Z,97521.46
2019-05-16T18:11:18.696Z,97523.92
2019-05-16T18:13:48.774Z,97519.06
2019-05-16T18:16:18.672Z,97522.55
2019-05-16T18:47:34.358Z,97505.56
2019-05-16T18:57:07.024Z,97507.70
2019-05-16T18:59:37.214Z,97504.05
2019-05-16T19:02:07.931Z,97508.66
2019-05-16T19:04:39.065Z,97503.75
2019-05-16T19:07:09.034Z,97498.30
2019-05-16T19:09:39.162Z,97495.86
2019-05-16T19:15:53.978Z,97492.44
2019-05-16T19:18:26.193Z,97497.70
2019-05-16T19:20:57.029Z,97496.14
2019-05-16T19:23:27.159Z,97492.69
2019-05-16T19:32:57.473Z,97493.95
2019-05-16T19:35:27.553Z,97494.09
2019-05-16T19:37:57.543Z,97492.55
2019-05-16T19:40:27.534Z,97492.31
2019-05-16T19:42:57.577Z,97491.09
2019-05-16T19:45:27.520Z,97487.17
2019-05-16T19:51:49.614Z,97487.50
2019-05-16T19:54:19.626Z,97486.06
2019-05-16T20:03:32.149Z,97488.14
2019-05-16T20:06:02.567Z,97490.48
2019-05-16T20:08:32.619Z,97485.41
2019-05-16T20:15:07.553Z,97491.47
2019-05-16T20:17:27.116Z,97489.85
2019-05-16T20:19:57.038Z,97485.18
2019-05-16T20:22:27.101Z,97479.50
2019-05-16T20:24:57.017Z,97480.64
2019-05-16T20:27:27.522Z,97482.53
2019-05-16T20:29:59.451Z,97479.98
2019-05-16T20:32:29.609Z,97485.36
2019-05-16T20:34:59.602Z,97485.66
2019-05-16T20:37:29.713Z,97487.88
2019-05-16T20:43:44.504Z,97483.67
2019-05-16T20:53:28.037Z,97484.27
2019-05-16T20:55:58.069Z,97482.12
2019-05-16T20:58:28.096Z,97480.89
2019-05-16T21:01:01.445Z,97483.51
2019-05-16T21:03:30.628Z,97484.94
2019-05-16T21:06:00.671Z,97483.05
2019-05-16T21:08:30.705Z,97482.39
2019-05-16T21:14:45.768Z,97480.36
2019-05-16T21:17:17.403Z,97471.78
2019-05-16T21:19:48.293Z,97481.31
2019-05-16T21:22:19.331Z,97475.58
2019-05-16T21:57:37.688Z,97432.33
2019-05-16T22:00:16.843Z,97431.44
2019-05-16T22:09:09.371Z,97424.70
2019-05-16T22:18:53.001Z,97419.38
2019-05-16T22:21:23.077Z,97422.41
2019-05-16T22:27:48.493Z,97415.30
2019-05-16T23:25:02.574Z,97361.36
2019-05-16T23:34:52.090Z,97349.32
